Terminal Aerodrome Forecast
Issued by NWS

Home | Current Version | Previous Version | Text Only | Print | Product List | Glossary Off
Versions: 1 2 3 4 5 6 7 8 9 10 11

270
FTUS43 KABR 202320
TAFPIR
TAF
KPIR 202320Z 2100/2124 36010KT P6SM FEW040
     FM210400 06005KT P6SM FEW150
     FM211600 11009KT P6SM SCT200=

USA.gov is the U.S. government's official web portal to all federal, state and local government web resources and services.